sensor_id;sensor_type;location;lat;lon;timestamp;P1;durP1;ratioP1;P2;durP2;ratioP2
20166;SDS011;10243;49.118;8.508;2023-04-06T00:00:03;22.02;;;15.73;;
20166;SDS011;10243;49.118;8.508;2023-04-06T00:00:29;19.95;;;14.80;;
20166;SDS011;10243;49.118;8.508;2023-04-06T00:00:50;22.38;;;14.90;;
20166;SDS011;10243;49.118;8.508;2023-04-06T00:01:11;23.50;;;14.75;;
20166;SDS011;10243;49.118;8.508;2023-04-06T00:01:31;20.20;;;14.77;;
20166;SDS011;10243;49.118;8.508;2023-04-06T00:01:54;17.45;;;13.75;;
20166;SDS011;10243;49.118;8.508;2023-04-06T00:02:15;20.42;;;14.07;;
20166;SDS011;10243;49.118;8.508;2023-04-06T00:02:35;20.60;;;15.03;;
20166;SDS011;10243;49.118;8.508;2023-04-06T00:02:56;18.15;;;13.90;;
20166;SDS011;10243;49.118;8.508;2023-04-06T00:03:16;21.67;;;14.60;;
20166;SDS011;10243;49.118;8.508;2023-04-06T00:03:38;20.02;;;14.77;;
20166;SDS011;10243;49.118;8.508;2023-04-06T00:03:58;19.57;;;14.37;;
20166;SDS011;10243;49.118;8.508;2023-04-06T00:04:19;19.23;;;14.38;;
20166;SDS011;10243;49.118;8.508;2023-04-06T00:04:39;22.77;;;14.07;;
20166;SDS011;10243;49.118;8.508;2023-04-06T00:05:00;20.38;;;13.73;;
20166;SDS011;10243;49.118;8.508;2023-04-06T00:05:21;19.67;;;13.65;;
20166;SDS011;10243;49.118;8.508;2023-04-06T00:05:43;20.85;;;13.65;;
20166;SDS011;10243;49.118;8.508;2023-04-06T00:06:03;20.88;;;13.93;;
20166;SDS011;10243;49.118;8.508;2023-04-06T00:06:24;17.95;;;14.05;;
20166;SDS011;10243;49.118;8.508;2023-04-06T00:06:45;20.00;;;13.97;;
20166;SDS011;10243;49.118;8.508;2023-04-06T00:07:06;18.15;;;14.32;;
20166;SDS011;10243;49.118;8.508;2023-04-06T00:07:27;19.63;;;14.63;;
20166;SDS011;10243;49.118;8.508;2023-04-06T00:07:48;17.73;;;14.48;;
20166;SDS011;10243;49.118;8.508;2023-04-06T00:08:08;19.95;;;14.32;;
20166;SDS011;10243;49.118;8.508;2023-04-06T00:08:29;19.30;;;13.80;;
20166;SDS011;10243;49.118;8.508;2023-04-06T00:08:50;18.23;;;14.40;;
20166;SDS011;10243;49.118;8.508;2023-04-06T00:09:11;19.53;;;14.43;;
20166;SDS011;10243;49.118;8.508;2023-04-06T00:09:31;20.15;;;13.80;;
20166;SDS011;10243;49.118;8.508;2023-04-06T00:09:52;19.47;;;13.43;;
20166;SDS011;10243;49.118;8.508;2023-04-06T00:10:12;18.27;;;13.95;;
20166;SDS011;10243;49.118;8.508;2023-04-06T00:10:33;20.80;;;14.23;;
20166;SDS011;10243;49.118;8.508;2023-04-06T00:10:54;21.98;;;14.15;;
20166;SDS011;10243;49.118;8.508;2023-04-06T00:11:15;17.50;;;13.73;;
20166;SDS011;10243;49.118;8.508;2023-04-06T00:11:36;17.08;;;13.73;;
20166;SDS011;10243;49.118;8.508;2023-04-06T00:11:57;16.97;;;13.50;;
20166;SDS011;10243;49.118;8.508;2023-04-06T00:12:18;17.55;;;13.85;;
20166;SDS011;10243;49.118;8.508;2023-04-06T00:12:39;18.67;;;14.48;;
20166;SDS011;10243;49.118;8.508;2023-04-06T00:13:00;19.73;;;14.60;;
20166;SDS011;10243;49.118;8.508;2023-04-06T00:13:20;20.20;;;13.82;;
20166;SDS011;10243;49.118;8.508;2023-04-06T00:13:41;18.08;;;13.60;;
20166;SDS011;10243;49.118;8.508;2023-04-06T00:14:01;19.20;;;14.07;;
20166;SDS011;10243;49.118;8.508;2023-04-06T00:14:23;17.83;;;14.20;;
20166;SDS011;10243;49.118;8.508;2023-04-06T00:14:43;18.48;;;14.40;;
20166;SDS011;10243;49.118;8.508;2023-04-06T00:15:04;18.23;;;14.70;;
20166;SDS011;10243;49.118;8.508;2023-04-06T00:15:26;22.10;;;14.32;;
20166;SDS011;10243;49.118;8.508;2023-04-06T00:15:47;22.00;;;14.35;;
20166;SDS011;10243;49.118;8.508;2023-04-06T00:16:08;19.80;;;14.93;;
20166;SDS011;10243;49.118;8.508;2023-04-06T00:16:28;21.73;;;15.88;;
20166;SDS011;10243;49.118;8.508;2023-04-06T00:16:49;21.83;;;16.00;;
20166;SDS011;10243;49.118;8.508;2023-04-06T00:17:11;25.10;;;16.63;;
20166;SDS011;10243;49.118;8.508;2023-04-06T00:17:32;22.15;;;16.63;;
20166;SDS011;10243;49.118;8.508;2023-04-06T00:17:53;21.00;;;16.83;;
20166;SDS011;10243;49.118;8.508;2023-04-06T00:18:13;22.15;;;16.83;;
20166;SDS011;10243;49.118;8.508;2023-04-06T00:18:34;22.80;;;16.40;;
20166;SDS011;10243;49.118;8.508;2023-04-06T00:18:54;23.08;;;16.17;;
20166;SDS011;10243;49.118;8.508;2023-04-06T00:19:15;21.58;;;16.88;;
20166;SDS011;10243;49.118;8.508;2023-04-06T00:19:36;20.25;;;16.73;;
20166;SDS011;10243;49.118;8.508;2023-04-06T00:19:57;20.75;;;16.15;;
20166;SDS011;10243;49.118;8.508;2023-04-06T00:20:18;22.80;;;16.50;;
20166;SDS011;10243;49.118;8.508;2023-04-06T00:20:38;23.02;;;16.05;;
20166;SDS011;10243;49.118;8.508;2023-04-06T00:21:00;21.83;;;15.38;;
20166;SDS011;10243;49.118;8.508;2023-04-06T00:21:21;25.00;;;15.60;;
20166;SDS011;10243;49.118;8.508;2023-04-06T00:21:41;21.35;;;15.85;;
20166;SDS011;10243;49.118;8.508;2023-04-06T00:22:01;22.23;;;16.37;;
20166;SDS011;10243;49.118;8.508;2023-04-06T00:22:22;23.52;;;16.13;;
20166;SDS011;10243;49.118;8.508;2023-04-06T00:22:44;24.10;;;16.40;;
20166;SDS011;10243;49.118;8.508;2023-04-06T00:23:04;21.67;;;16.17;;
20166;SDS011;10243;49.118;8.508;2023-04-06T00:23:25;21.08;;;16.17;;
20166;SDS011;10243;49.118;8.508;2023-04-06T00:23:46;21.42;;;16.30;;
20166;SDS011;10243;49.118;8.508;2023-04-06T00:24:07;21.92;;;15.75;;
20166;SDS011;10243;49.118;8.508;2023-04-06T00:24:28;21.77;;;15.73;;
20166;SDS011;10243;49.118;8.508;2023-04-06T00:24:48;24.03;;;15.83;;
20166;SDS011;10243;49.118;8.508;2023-04-06T00:25:09;23.30;;;15.88;;
20166;SDS011;10243;49.118;8.508;2023-04-06T00:25:30;23.75;;;16.65;;
20166;SDS011;10243;49.118;8.508;2023-04-06T00:25:51;21.15;;;16.02;;
20166;SDS011;10243;49.118;8.508;2023-04-06T00:26:12;18.80;;;15.63;;
20166;SDS011;10243;49.118;8.508;2023-04-06T00:26:36;21.50;;;15.93;;
20166;SDS011;10243;49.118;8.508;2023-04-06T00:26:56;21.23;;;15.27;;
20166;SDS011;10243;49.118;8.508;2023-04-06T00:27:17;20.37;;;15.40;;
20166;SDS011;10243;49.118;8.508;2023-04-06T00:27:38;21.30;;;15.55;;
20166;SDS011;10243;49.118;8.508;2023-04-06T00:27:59;20.07;;;15.03;;
20166;SDS011;10243;49.118;8.508;2023-04-06T00:28:20;20.15;;;15.30;;
20166;SDS011;10243;49.118;8.508;2023-04-06T00:28:45;20.52;;;15.23;;
20166;SDS011;10243;49.118;8.508;2023-04-06T00:29:05;22.38;;;15.10;;
20166;SDS011;10243;49.118;8.508;2023-04-06T00:29:27;22.27;;;15.10;;
20166;SDS011;10243;49.118;8.508;2023-04-06T00:29:47;19.15;;;14.93;;
20166;SDS011;10243;49.118;8.508;2023-04-06T00:30:08;20.27;;;14.87;;
20166;SDS011;10243;49.118;8.508;2023-04-06T00:30:29;17.23;;;14.18;;
20166;SDS011;10243;49.118;8.508;2023-04-06T00:30:50;20.10;;;14.18;;
20166;SDS011;10243;49.118;8.508;2023-04-06T00:31:12;18.40;;;14.45;;
20166;SDS011;10243;49.118;8.508;2023-04-06T00:31:33;18.83;;;14.57;;
20166;SDS011;10243;49.118;8.508;2023-04-06T00:31:53;21.48;;;14.95;;
20166;SDS011;10243;49.118;8.508;2023-04-06T00:32:15;25.33;;;15.27;;
20166;SDS011;10243;49.118;8.508;2023-04-06T00:32:37;24.50;;;15.43;;
20166;SDS011;10243;49.118;8.508;2023-04-06T00:32:57;22.40;;;16.17;;
20166;SDS011;10243;49.118;8.508;2023-04-06T00:33:18;22.33;;;15.93;;
20166;SDS011;10243;49.118;8.508;2023-04-06T00:33:38;22.00;;;15.70;;
20166;SDS011;10243;49.118;8.508;2023-04-06T00:33:59;22.50;;;16.23;;
20166;SDS011;10243;49.118;8.508;2023-04-06T00:34:19;23.80;;;16.45;;
20166;SDS011;10243;49.118;8.508;2023-04-06T00:34:41;22.55;;;15.60;;
20166;SDS011;10243;49.118;8.508;2023-04-06T00:35:01;16.85;;;14.32;;
20166;SDS011;10243;49.118;8.508;2023-04-06T00:35:22;17.37;;;14.73;;
20166;SDS011;10243;49.118;8.508;2023-04-06T00:35:42;17.90;;;15.27;;
20166;SDS011;10243;49.118;8.508;2023-04-06T00:36:04;18.80;;;15.13;;
20166;SDS011;10243;49.118;8.508;2023-04-06T00:36:25;19.23;;;14.85;;
20166;SDS011;10243;49.118;8.508;2023-04-06T00:36:46;18.08;;;14.23;;
20166;SDS011;10243;49.118;8.508;2023-04-06T00:37:07;18.60;;;14.73;;
20166;SDS011;10243;49.118;8.508;2023-04-06T00:37:27;21.75;;;15.95;;
20166;SDS011;10243;49.118;8.508;2023-04-06T00:37:49;22.10;;;15.18;;
20166;SDS011;10243;49.118;8.508;2023-04-06T00:38:09;18.77;;;14.27;;
20166;SDS011;10243;49.118;8.508;2023-04-06T00:38:30;16.60;;;13.50;;
20166;SDS011;10243;49.118;8.508;2023-04-06T00:38:50;16.60;;;13.60;;
20166;SDS011;10243;49.118;8.508;2023-04-06T00:39:12;17.40;;;14.02;;
20166;SDS011;10243;49.118;8.508;2023-04-06T00:39:32;18.88;;;14.30;;
20166;SDS011;10243;49.118;8.508;2023-04-06T00:39:53;18.30;;;14.07;;
20166;SDS011;10243;49.118;8.508;2023-04-06T00:40:13;16.48;;;13.60;;
20166;SDS011;10243;49.118;8.508;2023-04-06T00:40:34;19.53;;;14.30;;
20166;SDS011;10243;49.118;8.508;2023-04-06T00:40:56;19.85;;;14.35;;
20166;SDS011;10243;49.118;8.508;2023-04-06T00:41:17;18.38;;;14.40;;
20166;SDS011;10243;49.118;8.508;2023-04-06T00:41:38;17.17;;;14.30;;
20166;SDS011;10243;49.118;8.508;2023-04-06T00:41:59;19.58;;;14.25;;
20166;SDS011;10243;49.118;8.508;2023-04-06T00:42:21;19.02;;;14.10;;
20166;SDS011;10243;49.118;8.508;2023-04-06T00:42:45;21.60;;;15.43;;
20166;SDS011;10243;49.118;8.508;2023-04-06T00:43:06;20.80;;;15.35;;
20166;SDS011;10243;49.118;8.508;2023-04-06T00:43:26;17.87;;;14.80;;
20166;SDS011;10243;49.118;8.508;2023-04-06T00:43:47;18.10;;;15.07;;
20166;SDS011;10243;49.118;8.508;2023-04-06T00:44:07;17.93;;;14.27;;
20166;SDS011;10243;49.118;8.508;2023-04-06T00:44:29;20.77;;;13.88;;
20166;SDS011;10243;49.118;8.508;2023-04-06T00:44:49;17.33;;;14.40;;
20166;SDS011;10243;49.118;8.508;2023-04-06T00:45:10;17.92;;;14.65;;
20166;SDS011;10243;49.118;8.508;2023-04-06T00:45:30;18.87;;;15.20;;
20166;SDS011;10243;49.118;8.508;2023-04-06T00:45:51;18.40;;;14.82;;
20166;SDS011;10243;49.118;8.508;2023-04-06T00:46:12;20.25;;;13.93;;
20166;SDS011;10243;49.118;8.508;2023-04-06T00:46:33;18.05;;;14.00;;
20166;SDS011;10243;49.118;8.508;2023-04-06T00:46:54;19.17;;;14.35;;
20166;SDS011;10243;49.118;8.508;2023-04-06T00:47:16;17.90;;;14.63;;
20166;SDS011;10243;49.118;8.508;2023-04-06T00:47:36;19.15;;;15.68;;
20166;SDS011;10243;49.118;8.508;2023-04-06T00:47:58;19.83;;;15.75;;
20166;SDS011;10243;49.118;8.508;2023-04-06T00:48:19;23.33;;;15.35;;
20166;SDS011;10243;49.118;8.508;2023-04-06T00:48:39;22.27;;;15.60;;
20166;SDS011;10243;49.118;8.508;2023-04-06T00:49:00;20.15;;;15.32;;
20166;SDS011;10243;49.118;8.508;2023-04-06T00:49:21;21.23;;;14.70;;
20166;SDS011;10243;49.118;8.508;2023-04-06T00:49:42;21.27;;;14.70;;
20166;SDS011;10243;49.118;8.508;2023-04-06T00:50:03;17.98;;;14.98;;
20166;SDS011;10243;49.118;8.508;2023-04-06T00:50:24;17.27;;;14.15;;
20166;SDS011;10243;49.118;8.508;2023-04-06T00:50:45;17.55;;;14.05;;
20166;SDS011;10243;49.118;8.508;2023-04-06T00:51:06;17.25;;;13.82;;
20166;SDS011;10243;49.118;8.508;2023-04-06T00:51:27;17.00;;;13.70;;
20166;SDS011;10243;49.118;8.508;2023-04-06T00:51:47;18.40;;;14.17;;
20166;SDS011;10243;49.118;8.508;2023-04-06T00:52:09;16.17;;;14.13;;
20166;SDS011;10243;49.118;8.508;2023-04-06T00:52:29;16.33;;;13.85;;
20166;SDS011;10243;49.118;8.508;2023-04-06T00:52:51;16.35;;;13.88;;
20166;SDS011;10243;49.118;8.508;2023-04-06T00:53:17;18.25;;;14.10;;
20166;SDS011;10243;49.118;8.508;2023-04-06T00:53:37;18.48;;;13.95;;
20166;SDS011;10243;49.118;8.508;2023-04-06T00:53:58;19.07;;;14.07;;
20166;SDS011;10243;49.118;8.508;2023-04-06T00:54:19;19.42;;;14.70;;
20166;SDS011;10243;49.118;8.508;2023-04-06T00:54:40;18.60;;;14.30;;
20166;SDS011;10243;49.118;8.508;2023-04-06T00:55:02;16.52;;;13.45;;
20166;SDS011;10243;49.118;8.508;2023-04-06T00:55:23;18.55;;;13.38;;
20166;SDS011;10243;49.118;8.508;2023-04-06T00:55:43;20.27;;;13.40;;
20166;SDS011;10243;49.118;8.508;2023-04-06T00:56:04;20.45;;;13.20;;
20166;SDS011;10243;49.118;8.508;2023-04-06T00:56:35;16.65;;;13.38;;
20166;SDS011;10243;49.118;8.508;2023-04-06T00:56:56;18.73;;;13.57;;
20166;SDS011;10243;49.118;8.508;2023-04-06T00:57:17;18.70;;;13.63;;
20166;SDS011;10243;49.118;8.508;2023-04-06T00:57:39;19.02;;;13.82;;
20166;SDS011;10243;49.118;8.508;2023-04-06T00:58:01;18.17;;;13.55;;
20166;SDS011;10243;49.118;8.508;2023-04-06T00:58:24;17.45;;;13.20;;
20166;SDS011;10243;49.118;8.508;2023-04-06T00:58:49;18.00;;;13.15;;
20166;SDS011;10243;49.118;8.508;2023-04-06T00:59:10;15.63;;;13.10;;
20166;SDS011;10243;49.118;8.508;2023-04-06T00:59:31;16.95;;;13.13;;
20166;SDS011;10243;49.118;8.508;2023-04-06T00:59:54;16.60;;;12.77;;
20166;SDS011;10243;49.118;8.508;2023-04-06T01:00:15;16.43;;;13.60;;
20166;SDS011;10243;49.118;8.508;2023-04-06T01:00:38;15.90;;;13.45;;
20166;SDS011;10243;49.118;8.508;2023-04-06T01:00:59;22.58;;;13.57;;
20166;SDS011;10243;49.118;8.508;2023-04-06T01:01:19;21.30;;;13.55;;
20166;SDS011;10243;49.118;8.508;2023-04-06T01:01:43;20.15;;;14.20;;
20166;SDS011;10243;49.118;8.508;2023-04-06T01:02:19;18.45;;;13.77;;
20166;SDS011;10243;49.118;8.508;2023-04-06T01:02:43;23.05;;;13.35;;
20166;SDS011;10243;49.118;8.508;2023-04-06T01:03:05;22.67;;;13.30;;
20166;SDS011;10243;49.118;8.508;2023-04-06T01:03:32;18.80;;;13.55;;
20166;SDS011;10243;49.118;8.508;2023-04-06T01:03:53;19.80;;;13.68;;
20166;SDS011;10243;49.118;8.508;2023-04-06T01:04:14;21.90;;;13.80;;
20166;SDS011;10243;49.118;8.508;2023-04-06T01:04:36;18.13;;;13.75;;
20166;SDS011;10243;49.118;8.508;2023-04-06T01:04:59;19.27;;;14.07;;
20166;SDS011;10243;49.118;8.508;2023-04-06T01:05:42;20.25;;;14.85;;
20166;SDS011;10243;49.118;8.508;2023-04-06T01:06:12;18.88;;;13.88;;
20166;SDS011;10243;49.118;8.508;2023-04-06T01:06:35;19.33;;;14.13;;
20166;SDS011;10243;49.118;8.508;2023-04-06T01:06:56;17.47;;;13.27;;
20166;SDS011;10243;49.118;8.508;2023-04-06T01:07:22;17.70;;;13.50;;
20166;SDS011;10243;49.118;8.508;2023-04-06T01:07:56;17.50;;;13.20;;
20166;SDS011;10243;49.118;8.508;2023-04-06T01:08:21;15.55;;;13.45;;
20166;SDS011;10243;49.118;8.508;2023-04-06T01:08:44;18.60;;;13.68;;
20166;SDS011;10243;49.118;8.508;2023-04-06T01:09:14;17.35;;;13.50;;
20166;SDS011;10243;49.118;8.508;2023-04-06T01:09:35;18.38;;;13.80;;
20166;SDS011;10243;49.118;8.508;2023-04-06T01:10:01;19.88;;;14.35;;
20166;SDS011;10243;49.118;8.508;2023-04-06T01:10:24;22.33;;;14.20;;
20166;SDS011;10243;49.118;8.508;2023-04-06T01:10:47;18.55;;;14.05;;
20166;SDS011;10243;49.118;8.508;2023-04-06T01:11:19;16.73;;;14.43;;
20166;SDS011;10243;49.118;8.508;2023-04-06T01:11:42;19.85;;;15.52;;
20166;SDS011;10243;49.118;8.508;2023-04-06T01:12:06;19.83;;;15.40;;
20166;SDS011;10243;49.118;8.508;2023-04-06T01:12:28;20.08;;;15.65;;
20166;SDS011;10243;49.118;8.508;2023-04-06T01:12:52;22.33;;;15.73;;
20166;SDS011;10243;49.118;8.508;2023-04-06T01:13:30;23.27;;;15.32;;
20166;SDS011;10243;49.118;8.508;2023-04-06T01:13:57;25.55;;;16.00;;
20166;SDS011;10243;49.118;8.508;2023-04-06T01:14:36;24.13;;;16.55;;
20166;SDS011;10243;49.118;8.508;2023-04-06T01:14:57;23.35;;;15.82;;
20166;SDS011;10243;49.118;8.508;2023-04-06T01:15:19;22.33;;;15.93;;
20166;SDS011;10243;49.118;8.508;2023-04-06T01:15:44;21.85;;;16.40;;
20166;SDS011;10243;49.118;8.508;2023-04-06T01:16:09;21.15;;;15.70;;
20166;SDS011;10243;49.118;8.508;2023-04-06T01:17:02;21.85;;;15.73;;
20166;SDS011;10243;49.118;8.508;2023-04-06T01:17:27;20.25;;;15.13;;
20166;SDS011;10243;49.118;8.508;2023-04-06T01:17:49;20.50;;;15.57;;
20166;SDS011;10243;49.118;8.508;2023-04-06T01:18:11;21.67;;;15.75;;
20166;SDS011;10243;49.118;8.508;2023-04-06T01:18:37;19.67;;;14.95;;
20166;SDS011;10243;49.118;8.508;2023-04-06T01:19:12;19.63;;;14.63;;
20166;SDS011;10243;49.118;8.508;2023-04-06T01:19:37;20.52;;;15.10;;
20166;SDS011;10243;49.118;8.508;2023-04-06T01:19:58;21.17;;;15.83;;
20166;SDS011;10243;49.118;8.508;2023-04-06T01:20:23;25.63;;;15.95;;
20166;SDS011;10243;49.118;8.508;2023-04-06T01:20:45;24.63;;;16.95;;
20166;SDS011;10243;49.118;8.508;2023-04-06T01:21:06;22.90;;;16.58;;
20166;SDS011;10243;49.118;8.508;2023-04-06T01:21:29;19.20;;;15.23;;
20166;SDS011;10243;49.118;8.508;2023-04-06T01:22:08;26.63;;;15.23;;
20166;SDS011;10243;49.118;8.508;2023-04-06T01:22:40;20.83;;;14.90;;
20166;SDS011;10243;49.118;8.508;2023-04-06T01:23:00;18.33;;;13.88;;
20166;SDS011;10243;49.118;8.508;2023-04-06T01:23:21;21.63;;;13.88;;
20166;SDS011;10243;49.118;8.508;2023-04-06T01:23:43;19.80;;;14.38;;
20166;SDS011;10243;49.118;8.508;2023-04-06T01:24:05;17.13;;;14.40;;
20166;SDS011;10243;49.118;8.508;2023-04-06T01:24:37;19.73;;;14.77;;
20166;SDS011;10243;49.118;8.508;2023-04-06T01:25:00;20.42;;;14.88;;
20166;SDS011;10243;49.118;8.508;2023-04-06T01:25:50;21.00;;;15.85;;
20166;SDS011;10243;49.118;8.508;2023-04-06T01:26:11;22.60;;;16.10;;
20166;SDS011;10243;49.118;8.508;2023-04-06T01:26:32;21.33;;;16.63;;
20166;SDS011;10243;49.118;8.508;2023-04-06T01:26:54;21.67;;;15.85;;
20166;SDS011;10243;49.118;8.508;2023-04-06T01:27:16;22.92;;;16.20;;
20166;SDS011;10243;49.118;8.508;2023-04-06T01:27:57;21.40;;;16.65;;
20166;SDS011;10243;49.118;8.508;2023-04-06T01:28:35;23.73;;;16.02;;
20166;SDS011;10243;49.118;8.508;2023-04-06T01:29:04;21.65;;;16.42;;
20166;SDS011;10243;49.118;8.508;2023-04-06T01:29:24;21.73;;;16.53;;
20166;SDS011;10243;49.118;8.508;2023-04-06T01:29:45;22.58;;;16.45;;
20166;SDS011;10243;49.118;8.508;2023-04-06T01:30:13;22.08;;;16.00;;
20166;SDS011;10243;49.118;8.508;2023-04-06T01:30:55;19.55;;;15.98;;
20166;SDS011;10243;49.118;8.508;2023-04-06T01:31:51;23.05;;;15.85;;
20166;SDS011;10243;49.118;8.508;2023-04-06T01:32:13;22.45;;;15.60;;
20166;SDS011;10243;49.118;8.508;2023-04-06T01:32:41;22.80;;;15.95;;
20166;SDS011;10243;49.118;8.508;2023-04-06T01:33:03;23.80;;;16.73;;
20166;SDS011;10243;49.118;8.508;2023-04-06T01:33:35;21.48;;;15.77;;
20166;SDS011;10243;49.118;8.508;2023-04-06T01:34:00;22.63;;;15.48;;
20166;SDS011;10243;49.118;8.508;2023-04-06T01:34:21;23.60;;;15.70;;
20166;SDS011;10243;49.118;8.508;2023-04-06T01:34:41;21.60;;;16.23;;
20166;SDS011;10243;49.118;8.508;2023-04-06T01:35:03;20.98;;;15.95;;
20166;SDS011;10243;49.118;8.508;2023-04-06T01:35:26;22.25;;;16.45;;
20166;SDS011;10243;49.118;8.508;2023-04-06T01:36:20;19.42;;;15.00;;
20166;SDS011;10243;49.118;8.508;2023-04-06T01:36:47;18.85;;;14.43;;
20166;SDS011;10243;49.118;8.508;2023-04-06T01:37:19;15.82;;;13.48;;
20166;SDS011;10243;49.118;8.508;2023-04-06T01:37:41;14.73;;;13.15;;
20166;SDS011;10243;49.118;8.508;2023-04-06T01:38:05;15.10;;;12.70;;
20166;SDS011;10243;49.118;8.508;2023-04-06T01:38:29;17.85;;;13.70;;
20166;SDS011;10243;49.118;8.508;2023-04-06T01:38:51;18.92;;;15.40;;
20166;SDS011;10243;49.118;8.508;2023-04-06T01:39:14;19.50;;;16.15;;
20166;SDS011;10243;49.118;8.508;2023-04-06T01:39:35;20.30;;;15.70;;
20166;SDS011;10243;49.118;8.508;2023-04-06T01:39:57;22.17;;;16.67;;
20166;SDS011;10243;49.118;8.508;2023-04-06T01:40:31;20.60;;;16.35;;
20166;SDS011;10243;49.118;8.508;2023-04-06T01:40:52;21.88;;;16.67;;
20166;SDS011;10243;49.118;8.508;2023-04-06T01:41:15;20.90;;;17.08;;
20166;SDS011;10243;49.118;8.508;2023-04-06T01:41:41;25.35;;;18.15;;
20166;SDS011;10243;49.118;8.508;2023-04-06T01:42:03;25.70;;;17.95;;
20166;SDS011;10243;49.118;8.508;2023-04-06T01:42:25;26.75;;;17.38;;
20166;SDS011;10243;49.118;8.508;2023-04-06T01:42:46;24.42;;;16.77;;
20166;SDS011;10243;49.118;8.508;2023-04-06T01:43:12;24.05;;;16.83;;
20166;SDS011;10243;49.118;8.508;2023-04-06T01:43:52;23.08;;;16.00;;
20166;SDS011;10243;49.118;8.508;2023-04-06T01:44:16;26.08;;;16.38;;
20166;SDS011;10243;49.118;8.508;2023-04-06T01:44:37;25.17;;;15.68;;
20166;SDS011;10243;49.118;8.508;2023-04-06T01:45:04;20.77;;;16.23;;
20166;SDS011;10243;49.118;8.508;2023-04-06T01:45:25;23.00;;;16.00;;
20166;SDS011;10243;49.118;8.508;2023-04-06T01:45:50;19.85;;;15.40;;
20166;SDS011;10243;49.118;8.508;2023-04-06T01:46:14;19.65;;;15.23;;
20166;SDS011;10243;49.118;8.508;2023-04-06T01:46:37;22.55;;;16.05;;
20166;SDS011;10243;49.118;8.508;2023-04-06T01:46:58;19.08;;;15.50;;
20166;SDS011;10243;49.118;8.508;2023-04-06T01:47:19;20.23;;;15.70;;
20166;SDS011;10243;49.118;8.508;2023-04-06T01:47:42;21.63;;;15.55;;
20166;SDS011;10243;49.118;8.508;2023-04-06T01:48:04;20.58;;;14.77;;
20166;SDS011;10243;49.118;8.508;2023-04-06T01:48:26;21.45;;;15.50;;
20166;SDS011;10243;49.118;8.508;2023-04-06T01:48:47;20.33;;;15.40;;
20166;SDS011;10243;49.118;8.508;2023-04-06T01:49:21;21.10;;;16.08;;
20166;SDS011;10243;49.118;8.508;2023-04-06T01:49:47;25.10;;;15.60;;
20166;SDS011;10243;49.118;8.508;2023-04-06T01:50:08;20.33;;;14.85;;
20166;SDS011;10243;49.118;8.508;2023-04-06T01:50:35;18.77;;;15.07;;
20166;SDS011;10243;49.118;8.508;2023-04-06T01:50:56;17.67;;;14.80;;
20166;SDS011;10243;49.118;8.508;2023-04-06T01:51:22;19.35;;;14.63;;
20166;SDS011;10243;49.118;8.508;2023-04-06T01:51:49;18.65;;;14.52;;
20166;SDS011;10243;49.118;8.508;2023-04-06T01:52:10;21.25;;;15.20;;
20166;SDS011;10243;49.118;8.508;2023-04-06T01:52:34;19.65;;;14.32;;
20166;SDS011;10243;49.118;8.508;2023-04-06T01:52:56;21.63;;;14.30;;
20166;SDS011;10243;49.118;8.508;2023-04-06T01:53:18;18.25;;;15.20;;
20166;SDS011;10243;49.118;8.508;2023-04-06T01:53:39;18.13;;;15.50;;
20166;SDS011;10243;49.118;8.508;2023-04-06T01:54:01;18.25;;;15.63;;
20166;SDS011;10243;49.118;8.508;2023-04-06T01:54:48;23.63;;;16.90;;
20166;SDS011;10243;49.118;8.508;2023-04-06T01:55:16;22.58;;;16.88;;
20166;SDS011;10243;49.118;8.508;2023-04-06T01:55:55;20.05;;;16.55;;
20166;SDS011;10243;49.118;8.508;2023-04-06T01:56:24;20.13;;;14.80;;
20166;SDS011;10243;49.118;8.508;2023-04-06T01:57:05;20.95;;;15.40;;
20166;SDS011;10243;49.118;8.508;2023-04-06T01:57:35;21.35;;;16.00;;
20166;SDS011;10243;49.118;8.508;2023-04-06T01:58:05;18.25;;;15.30;;
20166;SDS011;10243;49.118;8.508;2023-04-06T01:58:30;19.67;;;15.57;;
20166;SDS011;10243;49.118;8.508;2023-04-06T01:58:51;21.05;;;15.75;;
20166;SDS011;10243;49.118;8.508;2023-04-06T01:59:11;18.97;;;15.07;;
20166;SDS011;10243;49.118;8.508;2023-04-06T01:59:36;20.02;;;15.13;;
20166;SDS011;10243;49.118;8.508;2023-04-06T02:00:02;19.00;;;14.85;;
20166;SDS011;10243;49.118;8.508;2023-04-06T02:00:33;20.20;;;15.15;;
20166;SDS011;10243;49.118;8.508;2023-04-06T02:00:55;20.45;;;15.80;;
20166;SDS011;10243;49.118;8.508;2023-04-06T02:01:16;18.85;;;15.55;;
20166;SDS011;10243;49.118;8.508;2023-04-06T02:01:46;21.08;;;15.70;;
20166;SDS011;10243;49.118;8.508;2023-04-06T02:02:07;20.23;;;15.63;;
20166;SDS011;10243;49.118;8.508;2023-04-06T02:02:29;19.75;;;15.55;;
20166;SDS011;10243;49.118;8.508;2023-04-06T02:02:58;23.25;;;16.02;;
20166;SDS011;10243;49.118;8.508;2023-04-06T02:03:21;23.02;;;16.73;;
20166;SDS011;10243;49.118;8.508;2023-04-06T02:03:44;25.38;;;16.00;;
20166;SDS011;10243;49.118;8.508;2023-04-06T02:04:05;20.73;;;16.15;;
20166;SDS011;10243;49.118;8.508;2023-04-06T02:04:27;20.67;;;16.65;;
20166;SDS011;10243;49.118;8.508;2023-04-06T02:04:57;22.25;;;16.90;;
20166;SDS011;10243;49.118;8.508;2023-04-06T02:05:19;24.88;;;16.67;;
20166;SDS011;10243;49.118;8.508;2023-04-06T02:05:39;24.42;;;16.67;;
20166;SDS011;10243;49.118;8.508;2023-04-06T02:06:12;20.05;;;16.67;;
20166;SDS011;10243;49.118;8.508;2023-04-06T02:06:34;21.63;;;17.35;;
20166;SDS011;10243;49.118;8.508;2023-04-06T02:06:57;24.50;;;17.02;;
20166;SDS011;10243;49.118;8.508;2023-04-06T02:07:19;22.42;;;16.90;;
20166;SDS011;10243;49.118;8.508;2023-04-06T02:07:41;24.55;;;17.35;;
20166;SDS011;10243;49.118;8.508;2023-04-06T02:08:03;24.65;;;16.98;;
20166;SDS011;10243;49.118;8.508;2023-04-06T02:08:30;25.33;;;16.48;;
20166;SDS011;10243;49.118;8.508;2023-04-06T02:08:51;21.17;;;16.95;;
20166;SDS011;10243;49.118;8.508;2023-04-06T02:09:11;21.47;;;16.37;;
20166;SDS011;10243;49.118;8.508;2023-04-06T02:09:33;21.70;;;16.75;;
20166;SDS011;10243;49.118;8.508;2023-04-06T02:09:54;24.45;;;16.80;;
20166;SDS011;10243;49.118;8.508;2023-04-06T02:10:19;23.23;;;16.80;;
20166;SDS011;10243;49.118;8.508;2023-04-06T02:10:39;23.67;;;16.77;;
20166;SDS011;10243;49.118;8.508;2023-04-06T02:11:09;23.90;;;16.85;;
20166;SDS011;10243;49.118;8.508;2023-04-06T02:11:39;21.40;;;16.17;;
20166;SDS011;10243;49.118;8.508;2023-04-06T02:11:59;22.40;;;16.93;;
20166;SDS011;10243;49.118;8.508;2023-04-06T02:12:21;22.42;;;17.10;;
20166;SDS011;10243;49.118;8.508;2023-04-06T02:12:42;20.30;;;16.38;;
20166;SDS011;10243;49.118;8.508;2023-04-06T02:13:06;22.20;;;16.33;;
20166;SDS011;10243;49.118;8.508;2023-04-06T02:13:28;21.42;;;16.70;;
20166;SDS011;10243;49.118;8.508;2023-04-06T02:13:49;19.98;;;16.35;;
20166;SDS011;10243;49.118;8.508;2023-04-06T02:14:11;21.58;;;16.08;;
20166;SDS011;10243;49.118;8.508;2023-04-06T02:14:36;19.90;;;15.13;;
20166;SDS011;10243;49.118;8.508;2023-04-06T02:14:58;20.85;;;14.73;;
20166;SDS011;10243;49.118;8.508;2023-04-06T02:15:18;21.70;;;15.17;;
20166;SDS011;10243;49.118;8.508;2023-04-06T02:15:39;21.42;;;15.65;;
20166;SDS011;10243;49.118;8.508;2023-04-06T02:15:59;18.83;;;15.33;;
20166;SDS011;10243;49.118;8.508;2023-04-06T02:16:22;19.60;;;15.05;;
20166;SDS011;10243;49.118;8.508;2023-04-06T02:16:43;19.85;;;15.50;;